Time;durP1;ratioP1;P1;durP2;ratioP2;P2;SDS_P1;SDS_P2;PMS_P1;PMS_P2;Temp;Humidity;BMP_temperature;BMP_pressure;BME280_temperature;BME280_humidity;BME280_pressure;Samples;Min_cycle;Max_cycle;Signal;HPM_P1;HPM_P2
2024/03/06 00:02:05;;;;;;;11.18;10.18;;;;;;;;;;5050662;28;20741;-82
2024/03/06 00:04:31;;;;;;;10.32;9.50;;;;;;;;;;5048215;28;20841;-81
2024/03/06 00:06:57;;;;;;;10.17;9.37;;;;;;;;;;5050765;28;20386;-82
2024/03/06 00:09:24;;;;;;;10.63;9.73;;;;;;;;;;5039142;28;20429;-81
2024/03/06 00:11:52;;;;;;;9.50;8.70;;;;;;;;;;5039644;28;20414;-81
2024/03/06 00:14:18;;;;;;;9.45;8.75;;;;;;;;;;5039442;28;20386;-81
2024/03/06 00:16:44;;;;;;;9.40;8.60;;;;;;;;;;5039472;28;20518;-81
2024/03/06 00:19:10;;;;;;;9.10;8.40;;;;;;;;;;5039825;28;20435;-81
2024/03/06 00:21:36;;;;;;;8.73;8.13;;;;;;;;;;5039325;28;20375;-81
2024/03/06 00:24:03;;;;;;;7.50;7.00;;;;;;;;;;5038871;28;20429;-81
2024/03/06 00:26:29;;;;;;;8.70;7.88;;;;;;;;;;5039688;28;20379;-80
2024/03/06 00:28:55;;;;;;;7.72;7.07;;;;;;;;;;5038786;28;20823;-81
2024/03/06 00:31:21;;;;;;;7.10;6.50;;;;;;;;;;5038034;28;20384;-81
2024/03/06 00:33:48;;;;;;;6.22;5.75;;;;;;;;;;5039571;28;20524;-80
2024/03/06 00:36:14;;;;;;;6.50;6.00;;;;;;;;;;5038615;28;20478;-80
2024/03/06 00:38:40;;;;;;;6.50;5.80;;;;;;;;;;5039129;28;20411;-81
2024/03/06 00:41:06;;;;;;;6.05;5.55;;;;;;;;;;5038988;28;20479;-80
2024/03/06 00:43:32;;;;;;;5.45;5.05;;;;;;;;;;5038287;28;20422;-81
2024/03/06 00:45:59;;;;;;;5.43;4.93;;;;;;;;;;5037928;28;20375;-81
2024/03/06 00:48:25;;;;;;;5.13;4.70;;;;;;;;;;5037545;28;20411;-81
2024/03/06 00:50:52;;;;;;;4.65;4.25;;;;;;;;;;5038560;28;20445;-80
2024/03/06 00:53:18;;;;;;;4.40;4.00;;;;;;;;;;5038502;28;20387;-81
2024/03/06 00:55:44;;;;;;;4.07;3.78;;;;;;;;;;5037839;28;20379;-80
2024/03/06 00:58:10;;;;;;;4.05;3.65;;;;;;;;;;5038190;28;20379;-81
2024/03/06 01:00:38;;;;;;;4.85;3.80;;;;;;;;;;5038340;28;20725;-80
2024/03/06 01:03:04;;;;;;;3.23;2.93;;;;;;;;;;5037814;28;20934;-81
2024/03/06 01:05:30;;;;;;;3.78;3.40;;;;;;;;;;5038332;28;20371;-81
2024/03/06 01:07:56;;;;;;;3.08;2.88;;;;;;;;;;5038929;28;20413;-81
2024/03/06 01:10:23;;;;;;;3.60;3.30;;;;;;;;;;5037598;28;20402;-81
2024/03/06 01:12:49;;;;;;;3.20;2.90;;;;;;;;;;5037264;28;20468;-81
2024/03/06 01:15:15;;;;;;;3.35;2.85;;;;;;;;;;5038188;28;20387;-81
2024/03/06 01:17:41;;;;;;;3.10;2.80;;;;;;;;;;5037629;28;20383;-80
2024/03/06 01:20:08;;;;;;;3.60;3.00;;;;;;;;;;5037818;28;20405;-80
2024/03/06 01:22:34;;;;;;;3.13;2.83;;;;;;;;;;5037568;28;20454;-80
2024/03/06 01:25:00;;;;;;;2.95;2.75;;;;;;;;;;5038007;28;20371;-81
2024/03/06 01:27:27;;;;;;;2.90;2.70;;;;;;;;;;5037278;28;20380;-81
2024/03/06 01:29:53;;;;;;;3.20;2.83;;;;;;;;;;5036669;28;20410;-80
2024/03/06 01:32:19;;;;;;;2.90;2.50;;;;;;;;;;5037450;28;20948;-81
2024/03/06 01:34:45;;;;;;;3.35;2.22;;;;;;;;;;5036868;28;20456;-80
2024/03/06 01:37:11;;;;;;;2.30;2.10;;;;;;;;;;5037180;28;20382;-80
2024/03/06 01:39:37;;;;;;;2.30;2.10;;;;;;;;;;5036737;28;20383;-80
2024/03/06 01:42:03;;;;;;;2.83;2.10;;;;;;;;;;5037420;28;20380;-80
2024/03/06 01:44:29;;;;;;;2.67;2.20;;;;;;;;;;5036636;28;20418;-81
2024/03/06 01:46:55;;;;;;;2.30;2.10;;;;;;;;;;5036836;28;20792;-80
2024/03/06 01:49:22;;;;;;;2.67;2.38;;;;;;;;;;5036199;28;20407;-80
2024/03/06 01:51:56;;;;;;;2.95;2.72;;;;;;;;;;5036266;28;20952;-80
2024/03/06 01:54:23;;;;;;;3.17;2.80;;;;;;;;;;5055830;28;20872;-81
2024/03/06 01:56:50;;;;;;;2.92;2.47;;;;;;;;;;5056832;28;20385;-80
2024/03/06 01:59:17;;;;;;;2.50;2.30;;;;;;;;;;5055849;28;20388;-80
2024/03/06 02:01:43;;;;;;;2.78;2.42;;;;;;;;;;5056605;28;20847;-81
2024/03/06 02:04:10;;;;;;;3.45;2.72;;;;;;;;;;5056147;28;20759;-80
2024/03/06 02:06:37;;;;;;;3.08;2.80;;;;;;;;;;5056449;28;20416;-80
2024/03/06 02:09:03;;;;;;;3.22;2.92;;;;;;;;;;5056023;28;20369;-81
2024/03/06 02:11:29;;;;;;;2.90;2.70;;;;;;;;;;5055848;28;20384;-81
2024/03/06 02:13:56;;;;;;;3.05;2.72;;;;;;;;;;5053008;28;20755;-81
2024/03/06 02:16:22;;;;;;;2.80;2.23;;;;;;;;;;5056389;28;20818;-80
2024/03/06 02:18:59;;;;;;;2.33;2.13;;;;;;;;;;5056232;28;20415;-80
2024/03/06 02:21:25;;;;;;;2.03;1.80;;;;;;;;;;5056245;28;20472;-80
2024/03/06 02:23:52;;;;;;;2.50;1.90;;;;;;;;;;5056038;28;20413;-81
2024/03/06 02:26:18;;;;;;;2.10;1.83;;;;;;;;;;5055901;28;20384;-80
2024/03/06 02:28:50;;;;;;;2.13;1.75;;;;;;;;;;5054055;28;20409;-80
2024/03/06 02:31:17;;;;;;;1.93;1.70;;;;;;;;;;5056073;28;20380;-80
2024/03/06 02:33:50;;;;;;;1.88;1.70;;;;;;;;;;5056068;28;20390;-81
2024/03/06 02:36:16;;;;;;;1.80;1.70;;;;;;;;;;5055823;28;20468;-80
2024/03/06 02:38:43;;;;;;;2.00;1.90;;;;;;;;;;5056127;28;20382;-80
2024/03/06 02:41:09;;;;;;;2.17;1.92;;;;;;;;;;5056109;28;20469;-80
2024/03/06 02:43:35;;;;;;;2.35;2.00;;;;;;;;;;5060321;28;20401;-80
2024/03/06 02:46:01;;;;;;;2.45;2.10;;;;;;;;;;5061344;28;20455;-82
2024/03/06 02:48:27;;;;;;;2.22;2.03;;;;;;;;;;5057921;28;20389;-82
2024/03/06 02:50:53;;;;;;;2.72;2.03;;;;;;;;;;5058732;28;20938;-81
2024/03/06 02:53:19;;;;;;;2.70;2.28;;;;;;;;;;5057147;28;20413;-81
2024/03/06 02:55:45;;;;;;;2.88;2.17;;;;;;;;;;5056933;28;20385;-81
2024/03/06 02:58:11;;;;;;;2.25;2.10;;;;;;;;;;5057144;28;20392;-81
2024/03/06 03:00:37;;;;;;;2.90;2.60;;;;;;;;;;5056731;28;20381;-82
2024/03/06 03:03:03;;;;;;;2.80;2.60;;;;;;;;;;5057302;28;20725;-81
2024/03/06 03:05:29;;;;;;;2.53;2.33;;;;;;;;;;5057129;28;20385;-81
2024/03/06 03:07:55;;;;;;;2.40;2.20;;;;;;;;;;5057122;28;20863;-81
2024/03/06 03:10:21;;;;;;;2.50;2.30;;;;;;;;;;5056433;28;20390;-81
2024/03/06 03:12:47;;;;;;;2.60;2.40;;;;;;;;;;5056748;28;20381;-81
2024/03/06 03:15:13;;;;;;;2.58;2.38;;;;;;;;;;5056380;28;20740;-81
2024/03/06 03:17:39;;;;;;;2.33;2.22;;;;;;;;;;5056267;28;20456;-81
2024/03/06 03:20:16;;;;;;;2.50;2.30;;;;;;;;;;5056376;28;20920;-81
2024/03/06 03:22:43;;;;;;;2.88;2.67;;;;;;;;;;5056287;28;20425;-81
2024/03/06 03:25:12;;;;;;;3.22;2.95;;;;;;;;;;5056217;28;20373;-81
2024/03/06 03:27:40;;;;;;;3.22;3.00;;;;;;;;;;5056591;28;20374;-80
2024/03/06 03:30:09;;;;;;;3.30;3.10;;;;;;;;;;5056773;28;20378;-80
2024/03/06 03:32:35;;;;;;;2.97;2.78;;;;;;;;;;5056656;28;20427;-81
2024/03/06 03:35:01;;;;;;;3.55;3.25;;;;;;;;;;5056330;28;20373;-82
2024/03/06 03:37:28;;;;;;;3.10;2.80;;;;;;;;;;5056564;28;20718;-82
2024/03/06 03:39:54;;;;;;;3.25;3.03;;;;;;;;;;5054374;28;20468;-81
2024/03/06 03:42:20;;;;;;;2.80;2.60;;;;;;;;;;5055910;28;20389;-81
2024/03/06 03:44:46;;;;;;;2.97;2.70;;;;;;;;;;5055845;28;20859;-80
2024/03/06 03:47:12;;;;;;;3.00;2.80;;;;;;;;;;5056015;28;20377;-80
2024/03/06 03:49:38;;;;;;;2.90;2.70;;;;;;;;;;5056060;28;20433;-81
2024/03/06 03:52:04;;;;;;;2.90;2.70;;;;;;;;;;5056367;28;20386;-81
2024/03/06 03:54:30;;;;;;;2.63;2.42;;;;;;;;;;5055315;28;20404;-81
2024/03/06 03:56:58;;;;;;;2.30;2.10;;;;;;;;;;5055736;28;20386;-81
2024/03/06 03:59:24;;;;;;;2.25;2.05;;;;;;;;;;5054656;28;20393;-82
2024/03/06 04:01:50;;;;;;;2.40;2.13;;;;;;;;;;5055295;28;20917;-80
2024/03/06 04:04:16;;;;;;;2.22;1.90;;;;;;;;;;5052546;28;20503;-81
2024/03/06 04:06:42;;;;;;;2.17;2.08;;;;;;;;;;5055780;28;20385;-82
2024/03/06 04:09:11;;;;;;;2.60;2.40;;;;;;;;;;5056027;28;20381;-81
2024/03/06 04:11:37;;;;;;;2.00;1.90;;;;;;;;;;5055879;28;20381;-80
2024/03/06 04:14:04;;;;;;;2.00;1.90;;;;;;;;;;5055196;28;20392;-81
2024/03/06 04:16:30;;;;;;;2.38;2.17;;;;;;;;;;5055678;28;20377;-80
2024/03/06 04:18:56;;;;;;;2.50;2.35;;;;;;;;;;5054952;28;20381;-81
2024/03/06 04:21:22;;;;;;;2.58;2.38;;;;;;;;;;5055430;28;20382;-80
2024/03/06 04:23:48;;;;;;;2.80;2.60;;;;;;;;;;5057761;28;20504;-81
2024/03/06 04:26:15;;;;;;;3.05;2.85;;;;;;;;;;5056971;28;20408;-80
2024/03/06 04:28:41;;;;;;;3.00;2.80;;;;;;;;;;5057637;28;20867;-81
2024/03/06 04:31:07;;;;;;;4.38;3.03;;;;;;;;;;5057868;28;20389;-80
2024/03/06 04:33:33;;;;;;;2.90;2.70;;;;;;;;;;5058369;28;20899;-80
2024/03/06 04:36:00;;;;;;;3.03;2.83;;;;;;;;;;5058317;28;20390;-80
2024/03/06 04:38:26;;;;;;;3.65;3.35;;;;;;;;;;5058665;28;20389;-80
2024/03/06 04:40:52;;;;;;;3.60;3.30;;;;;;;;;;5057958;28;20381;-81
2024/03/06 04:43:18;;;;;;;3.13;2.83;;;;;;;;;;5057741;28;20405;-80
2024/03/06 04:45:44;;;;;;;3.20;3.00;;;;;;;;;;5057750;28;20380;-80
2024/03/06 04:48:10;;;;;;;3.00;2.80;;;;;;;;;;5058103;28;20436;-80
2024/03/06 04:50:36;;;;;;;3.30;3.10;;;;;;;;;;5057377;28;20397;-80
2024/03/06 04:53:02;;;;;;;3.88;3.58;;;;;;;;;;5057683;28;20388;-81
2024/03/06 04:55:30;;;;;;;3.65;3.35;;;;;;;;;;5057188;28;20405;-80
2024/03/06 04:57:56;;;;;;;3.70;3.50;;;;;;;;;;5057262;28;20434;-81
2024/03/06 05:00:23;;;;;;;3.50;3.30;;;;;;;;;;5057419;28;20404;-80
2024/03/06 05:02:49;;;;;;;3.83;3.63;;;;;;;;;;5057030;28;20408;-80
2024/03/06 05:05:15;;;;;;;4.07;3.78;;;;;;;;;;5057213;28;20794;-80
2024/03/06 05:07:41;;;;;;;5.20;4.80;;;;;;;;;;5056862;28;20380;-80
2024/03/06 05:10:08;;;;;;;5.53;5.03;;;;;;;;;;5056869;28;20385;-81
2024/03/06 05:12:34;;;;;;;4.68;4.38;;;;;;;;;;5057364;28;20380;-80
2024/03/06 05:15:00;;;;;;;4.60;4.30;;;;;;;;;;5056971;28;20468;-80
2024/03/06 05:17:26;;;;;;;4.60;4.28;;;;;;;;;;5056865;28;20435;-81
2024/03/06 05:19:54;;;;;;;3.83;3.53;;;;;;;;;;5057182;28;20381;-80
2024/03/06 05:22:21;;;;;;;3.72;3.53;;;;;;;;;;5057024;28;20370;-79
2024/03/06 05:24:47;;;;;;;4.07;3.80;;;;;;;;;;5057344;28;20408;-79
2024/03/06 05:27:17;;;;;;;3.92;3.63;;;;;;;;;;5056561;28;20389;-79
2024/03/06 05:29:43;;;;;;;5.35;4.85;;;;;;;;;;5056541;28;20377;-79
2024/03/06 05:32:09;;;;;;;5.68;5.18;;;;;;;;;;5056493;28;20377;-80
2024/03/06 05:34:36;;;;;;;5.55;5.15;;;;;;;;;;5055657;28;20854;-79
2024/03/06 05:37:04;;;;;;;5.70;5.30;;;;;;;;;;5056259;28;20377;-79
2024/03/06 05:39:30;;;;;;;5.10;4.70;;;;;;;;;;5056235;28;20384;-80
2024/03/06 05:41:56;;;;;;;4.80;4.50;;;;;;;;;;5056544;28;20420;-79
2024/03/06 05:44:22;;;;;;;5.00;4.65;;;;;;;;;;5056257;28;20763;-80
2024/03/06 05:46:48;;;;;;;4.37;4.07;;;;;;;;;;5055967;28;20386;-80
2024/03/06 05:49:14;;;;;;;4.28;4.00;;;;;;;;;;5055915;28;20405;-80
2024/03/06 05:51:40;;;;;;;3.88;3.58;;;;;;;;;;5059136;28;20373;-80
2024/03/06 05:54:08;;;;;;;3.88;3.67;;;;;;;;;;5061361;28;20404;-80
2024/03/06 05:56:34;;;;;;;4.13;3.83;;;;;;;;;;5057957;28;20897;-80
2024/03/06 05:59:04;;;;;;;3.65;3.38;;;;;;;;;;5057434;28;20439;-81
2024/03/06 06:01:30;;;;;;;3.30;3.10;;;;;;;;;;5058039;28;20427;-80
2024/03/06 06:03:56;;;;;;;2.90;2.80;;;;;;;;;;5057667;28;20405;-80
2024/03/06 06:06:22;;;;;;;3.10;2.90;;;;;;;;;;5054450;28;20385;-79
2024/03/06 06:08:48;;;;;;;3.00;2.80;;;;;;;;;;5056733;28;20859;-81
2024/03/06 06:11:14;;;;;;;3.40;3.05;;;;;;;;;;5056880;28;20378;-80
2024/03/06 06:13:40;;;;;;;3.05;2.75;;;;;;;;;;5057085;28;20389;-80
2024/03/06 06:16:06;;;;;;;2.88;2.67;;;;;;;;;;5056332;28;20446;-80
2024/03/06 06:18:33;;;;;;;2.90;2.70;;;;;;;;;;5056464;28;20408;-80
2024/03/06 06:20:59;;;;;;;2.50;2.40;;;;;;;;;;5056792;28;20381;-80
2024/03/06 06:23:25;;;;;;;2.63;2.53;;;;;;;;;;5056684;28;20413;-81
2024/03/06 06:25:51;;;;;;;2.70;2.50;;;;;;;;;;5057250;28;20397;-80
2024/03/06 06:28:17;;;;;;;2.40;2.30;;;;;;;;;;5056082;28;20381;-80
2024/03/06 06:30:43;;;;;;;2.38;2.28;;;;;;;;;;5056143;28;20453;-80
2024/03/06 06:33:09;;;;;;;2.95;2.75;;;;;;;;;;5057042;28;20385;-80
2024/03/06 06:35:36;;;;;;;3.27;3.07;;;;;;;;;;5056430;28;20450;-80
2024/03/06 06:38:02;;;;;;;3.08;2.88;;;;;;;;;;5054773;28;20468;-80
2024/03/06 06:40:28;;;;;;;3.60;2.90;;;;;;;;;;5056253;28;20441;-80
2024/03/06 06:42:55;;;;;;;3.20;3.00;;;;;;;;;;5057264;28;20432;-80
2024/03/06 06:45:21;;;;;;;3.15;2.92;;;;;;;;;;5056072;28;20409;-80
2024/03/06 06:47:48;;;;;;;3.88;3.58;;;;;;;;;;5056365;28;20405;-80
2024/03/06 06:50:14;;;;;;;3.70;3.40;;;;;;;;;;5055648;28;20482;-80
2024/03/06 06:52:40;;;;;;;3.78;3.50;;;;;;;;;;5055890;28;20377;-80
2024/03/06 06:55:06;;;;;;;4.13;3.63;;;;;;;;;;5055988;28;20385;-80
2024/03/06 06:57:33;;;;;;;3.80;3.60;;;;;;;;;;5055441;28;20405;-80
2024/03/06 06:59:59;;;;;;;3.73;3.53;;;;;;;;;;5055001;28;20378;-80
2024/03/06 07:02:25;;;;;;;3.97;3.67;;;;;;;;;;5055168;28;20388;-79
2024/03/06 07:04:52;;;;;;;3.50;3.30;;;;;;;;;;5055725;28;20386;-79
2024/03/06 07:07:18;;;;;;;4.18;3.83;;;;;;;;;;5055610;28;20747;-80
2024/03/06 07:09:44;;;;;;;3.35;3.15;;;;;;;;;;5054841;28;20382;-80
2024/03/06 07:12:10;;;;;;;3.30;3.10;;;;;;;;;;5054638;28;20386;-80
2024/03/06 07:14:36;;;;;;;3.40;3.20;;;;;;;;;;5055218;28;20411;-80
2024/03/06 07:17:03;;;;;;;3.10;2.90;;;;;;;;;;5054643;28;20392;-80
2024/03/06 07:19:29;;;;;;;3.20;3.00;;;;;;;;;;5054768;28;20380;-80
2024/03/06 07:21:55;;;;;;;3.17;3.00;;;;;;;;;;5055144;28;20374;-80
2024/03/06 07:24:21;;;;;;;3.90;3.63;;;;;;;;;;5055377;28;20452;-79
2024/03/06 07:26:47;;;;;;;3.95;3.65;;;;;;;;;;5055209;28;20384;-79
2024/03/06 07:29:14;;;;;;;4.30;4.00;;;;;;;;;;5054739;28;20385;-80
2024/03/06 07:31:47;;;;;;;4.30;3.80;;;;;;;;;;5054864;28;20385;-81
2024/03/06 07:34:14;;;;;;;3.90;3.70;;;;;;;;;;5055243;28;20747;-80
2024/03/06 07:36:40;;;;;;;3.40;3.20;;;;;;;;;;5055649;28;20381;-80
2024/03/06 07:39:07;;;;;;;3.28;3.08;;;;;;;;;;5055717;28;20397;-80
2024/03/06 07:41:33;;;;;;;3.47;3.28;;;;;;;;;;5055508;28;20749;-80
2024/03/06 07:44:00;;;;;;;3.72;3.42;;;;;;;;;;5055161;28;20416;-80
2024/03/06 07:46:26;;;;;;;3.60;3.40;;;;;;;;;;5054937;28;20927;-80
2024/03/06 07:48:52;;;;;;;3.47;3.20;;;;;;;;;;5055134;28;20444;-80
2024/03/06 07:51:18;;;;;;;3.75;3.45;;;;;;;;;;5055185;28;20385;-80
2024/03/06 07:53:44;;;;;;;3.97;3.67;;;;;;;;;;5054955;28;20394;-79
2024/03/06 07:56:13;;;;;;;4.00;3.60;;;;;;;;;;5055029;28;20384;-79
2024/03/06 07:58:39;;;;;;;4.00;3.70;;;;;;;;;;5051643;28;20467;-79
2024/03/06 08:01:07;;;;;;;4.15;3.85;;;;;;;;;;5038515;28;20438;-79
2024/03/06 08:03:33;;;;;;;4.85;4.47;;;;;;;;;;5038461;28;20406;-79
2024/03/06 08:06:00;;;;;;;4.97;4.57;;;;;;;;;;5038600;28;20367;-79
2024/03/06 08:08:26;;;;;;;4.95;4.65;;;;;;;;;;5038511;28;20383;-79
2024/03/06 08:10:52;;;;;;;4.57;4.27;;;;;;;;;;5038065;28;20390;-80
2024/03/06 08:13:21;;;;;;;4.70;4.40;;;;;;;;;;5037855;28;20391;-79
2024/03/06 08:15:47;;;;;;;5.15;4.85;;;;;;;;;;5038900;28;20437;-79
2024/03/06 08:18:14;;;;;;;5.83;5.43;;;;;;;;;;5038151;28;20387;-79
2024/03/06 08:20:40;;;;;;;6.20;5.70;;;;;;;;;;5038842;28;20393;-80
2024/03/06 08:23:09;;;;;;;6.00;5.50;;;;;;;;;;5038046;28;20835;-79
2024/03/06 08:25:35;;;;;;;5.25;4.85;;;;;;;;;;5037780;28;20388;-79
2024/03/06 08:28:03;;;;;;;5.53;5.13;;;;;;;;;;5037588;28;20912;-79
2024/03/06 08:30:32;;;;;;;5.90;5.50;;;;;;;;;;5037554;28;20383;-79
2024/03/06 08:32:58;;;;;;;6.07;5.68;;;;;;;;;;5037553;28;20387;-79
2024/03/06 08:35:24;;;;;;;6.10;5.70;;;;;;;;;;5037601;28;20383;-79
2024/03/06 08:37:50;;;;;;;5.68;5.28;;;;;;;;;;5037492;28;20379;-79
2024/03/06 08:40:17;;;;;;;6.57;6.07;;;;;;;;;;5044802;28;20385;-79
2024/03/06 08:42:47;;;;;;;7.10;6.55;;;;;;;;;;5057150;28;20878;-79
2024/03/06 08:45:14;;;;;;;7.53;6.93;;;;;;;;;;5056923;28;20844;-79
2024/03/06 08:47:40;;;;;;;7.30;6.70;;;;;;;;;;5056994;28;20396;-79
2024/03/06 08:50:09;;;;;;;8.23;7.53;;;;;;;;;;5056577;28;20402;-79
2024/03/06 08:52:35;;;;;;;7.93;7.32;;;;;;;;;;5056922;28;20378;-79
2024/03/06 08:55:04;;;;;;;8.32;7.72;;;;;;;;;;5056913;28;20373;-79
2024/03/06 08:57:31;;;;;;;8.02;7.43;;;;;;;;;;5056934;28;20377;-80
2024/03/06 08:59:57;;;;;;;8.53;7.83;;;;;;;;;;5058793;28;20463;-83
2024/03/06 09:02:23;;;;;;;8.15;7.55;;;;;;;;;;5059003;28;20378;-83
2024/03/06 09:04:51;;;;;;;7.47;6.90;;;;;;;;;;5058175;28;20409;-81
2024/03/06 09:07:18;;;;;;;7.07;6.53;;;;;;;;;;5057438;28;20456;-81
2024/03/06 09:09:44;;;;;;;6.93;6.43;;;;;;;;;;5058126;28;20397;-82
2024/03/06 09:12:10;;;;;;;6.80;6.30;;;;;;;;;;5057438;28;20848;-82
2024/03/06 09:14:37;;;;;;;6.27;5.87;;;;;;;;;;5056497;28;20386;-82
2024/03/06 09:17:03;;;;;;;6.18;5.68;;;;;;;;;;5056189;28;20373;-82
2024/03/06 09:19:30;;;;;;;5.30;5.00;;;;;;;;;;5056628;28;20385;-83
2024/03/06 09:21:56;;;;;;;5.10;4.80;;;;;;;;;;5056007;28;20373;-82
2024/03/06 09:24:23;;;;;;;5.25;4.75;;;;;;;;;;5056482;28;20440;-83
2024/03/06 09:26:49;;;;;;;5.13;4.72;;;;;;;;;;5055548;28;20385;-82
2024/03/06 09:29:15;;;;;;;4.47;4.18;;;;;;;;;;5055800;28;20374;-83
2024/03/06 09:31:41;;;;;;;4.70;4.40;;;;;;;;;;5056075;28;20405;-83
2024/03/06 09:34:07;;;;;;;4.50;4.20;;;;;;;;;;5056569;28;20381;-83
2024/03/06 09:36:34;;;;;;;4.75;4.45;;;;;;;;;;5056154;28;20380;-83
2024/03/06 09:39:00;;;;;;;5.00;4.70;;;;;;;;;;5055880;28;20405;-82
2024/03/06 09:41:26;;;;;;;4.80;4.50;;;;;;;;;;5056321;28;20723;-83
2024/03/06 09:43:53;;;;;;;4.60;4.30;;;;;;;;;;5054836;28;20461;-82
2024/03/06 09:46:18;;;;;;;5.22;4.82;;;;;;;;;;5055038;28;20404;-82
2024/03/06 09:48:46;;;;;;;5.47;5.07;;;;;;;;;;5053985;28;20736;-82
2024/03/06 09:51:13;;;;;;;6.25;5.78;;;;;;;;;;5055424;28;20479;-82
2024/03/06 09:53:39;;;;;;;5.77;5.27;;;;;;;;;;5055135;28;20708;-82
2024/03/06 09:56:06;;;;;;;5.88;5.40;;;;;;;;;;5055212;28;20392;-82
2024/03/06 09:58:32;;;;;;;6.45;5.95;;;;;;;;;;5057700;28;20392;-82
2024/03/06 10:01:00;;;;;;;5.80;5.37;;;;;;;;;;5058649;28;20570;-81
2024/03/06 10:03:26;;;;;;;5.50;5.10;;;;;;;;;;5058899;28;20936;-81
2024/03/06 10:05:54;;;;;;;5.40;5.00;;;;;;;;;;5053584;28;20445;-81
2024/03/06 10:08:21;;;;;;;5.78;5.38;;;;;;;;;;5037818;28;20462;-82
2024/03/06 10:10:48;;;;;;;5.80;5.40;;;;;;;;;;5038075;28;20377;-82
2024/03/06 10:13:17;;;;;;;5.90;5.50;;;;;;;;;;5038410;28;20741;-82
2024/03/06 10:15:43;;;;;;;5.65;5.20;;;;;;;;;;5038018;28;20383;-82
2024/03/06 10:18:13;;;;;;;6.28;5.72;;;;;;;;;;5036932;28;20387;-82
2024/03/06 10:20:39;;;;;;;5.90;5.40;;;;;;;;;;5035531;28;20840;-82
2024/03/06 10:23:05;;;;;;;5.60;5.10;;;;;;;;;;5037326;28;20406;-81
2024/03/06 10:25:31;;;;;;;4.65;4.30;;;;;;;;;;5036102;28;20386;-82
2024/03/06 10:28:03;;;;;;;5.15;4.75;;;;;;;;;;5036329;28;20383;-82
2024/03/06 10:30:29;;;;;;;5.70;5.22;;;;;;;;;;5036417;28;20857;-82
2024/03/06 10:32:55;;;;;;;5.60;5.17;;;;;;;;;;5036117;28;20462;-82
2024/03/06 10:35:21;;;;;;;5.43;5.03;;;;;;;;;;5036096;28;20711;-82
2024/03/06 10:37:47;;;;;;;5.90;5.50;;;;;;;;;;5036610;28;20394;-82
2024/03/06 10:40:16;;;;;;;6.32;5.72;;;;;;;;;;5036000;28;20398;-82
2024/03/06 10:42:43;;;;;;;6.80;6.30;;;;;;;;;;5036615;28;20383;-82
2024/03/06 10:45:12;;;;;;;5.97;5.47;;;;;;;;;;5036672;28;20379;-82
2024/03/06 10:47:40;;;;;;;5.55;5.15;;;;;;;;;;5054880;28;20377;-82
2024/03/06 10:50:10;;;;;;;7.00;6.18;;;;;;;;;;5055316;28;20756;-82
2024/03/06 10:52:37;;;;;;;6.80;6.30;;;;;;;;;;5055195;28;20374;-82
2024/03/06 10:55:04;;;;;;;6.90;6.40;;;;;;;;;;5055206;28;20392;-82
2024/03/06 10:57:30;;;;;;;7.65;6.75;;;;;;;;;;5055588;28;20378;-82
2024/03/06 10:59:59;;;;;;;6.80;6.30;;;;;;;;;;5053800;28;20378;-82
2024/03/06 11:02:25;;;;;;;6.43;6.03;;;;;;;;;;5054314;28;20476;-82
2024/03/06 11:04:52;;;;;;;5.90;5.50;;;;;;;;;;5054353;28;20890;-82
2024/03/06 11:07:18;;;;;;;5.72;5.22;;;;;;;;;;5054912;28;20417;-82
2024/03/06 11:09:44;;;;;;;5.97;5.47;;;;;;;;;;5055821;28;20385;-82
2024/03/06 11:12:10;;;;;;;5.95;5.55;;;;;;;;;;5055552;28;20382;-83
2024/03/06 11:14:40;;;;;;;5.53;5.15;;;;;;;;;;5056419;28;20385;-82
2024/03/06 11:17:07;;;;;;;6.13;5.70;;;;;;;;;;5056734;28;20389;-82
2024/03/06 11:19:53;;;;;;;6.25;5.75;;;;;;;;;;5055886;28;20389;-82
2024/03/06 11:22:39;;;;;;;5.60;5.18;;;;;;;;;;5056065;28;20859;-82
2024/03/06 11:25:05;;;;;;;6.78;6.18;;;;;;;;;;5056332;28;20408;-82
2024/03/06 11:27:32;;;;;;;7.18;6.60;;;;;;;;;;5056357;28;20374;-82
2024/03/06 11:30:10;;;;;;;7.60;7.00;;;;;;;;;;5056382;28;20824;-82
2024/03/06 11:32:36;;;;;;;7.93;7.32;;;;;;;;;;5057691;28;20412;-82
2024/03/06 11:35:04;;;;;;;7.60;7.00;;;;;;;;;;5060794;28;21043;-82
2024/03/06 11:37:30;;;;;;;7.07;6.57;;;;;;;;;;5060282;28;20903;-82
2024/03/06 11:40:01;;;;;;;5.93;5.53;;;;;;;;;;5060061;28;20768;-82
2024/03/06 11:42:37;;;;;;;6.90;6.40;;;;;;;;;;5060487;28;20715;-82
2024/03/06 11:45:13;;;;;;;4.70;4.40;;;;;;;;;;5059986;28;20389;-82
2024/03/06 11:47:58;;;;;;;4.88;4.53;;;;;;;;;;5059255;28;20382;-82
2024/03/06 11:50:26;;;;;;;2.55;2.35;;;;;;;;;;5059090;28;20397;-82
2024/03/06 11:52:52;;;;;;;2.65;2.45;;;;;;;;;;5059569;28;20417;-82
2024/03/06 11:55:18;;;;;;;2.40;2.20;;;;;;;;;;5060343;28;20385;-83
2024/03/06 11:57:47;;;;;;;2.10;2.00;;;;;;;;;;5059489;28;20509;-83
2024/03/06 12:00:13;;;;;;;1.95;1.85;;;;;;;;;;5057625;28;20377;-82
2024/03/06 12:02:39;;;;;;;1.75;1.65;;;;;;;;;;5060121;28;20390;-83
2024/03/06 12:05:05;;;;;;;2.63;2.40;;;;;;;;;;5058970;28;20469;-83
2024/03/06 12:07:31;;;;;;;1.90;1.80;;;;;;;;;;5058213;28;20381;-82
2024/03/06 12:09:58;;;;;;;2.30;2.10;;;;;;;;;;5057989;28;20846;-83
2024/03/06 12:12:27;;;;;;;3.08;2.25;;;;;;;;;;5059069;28;20487;-82
2024/03/06 12:15:03;;;;;;;2.25;2.08;;;;;;;;;;5058616;28;20393;-82
2024/03/06 12:17:30;;;;;;;2.33;1.98;;;;;;;;;;5060633;28;20787;-82
2024/03/06 12:19:56;;;;;;;2.30;2.10;;;;;;;;;;5060358;28;20385;-82
2024/03/06 12:22:26;;;;;;;2.60;2.40;;;;;;;;;;5059699;28;20486;-83
2024/03/06 12:25:00;;;;;;;2.90;2.70;;;;;;;;;;5065778;28;20397;-83
2024/03/06 12:27:26;;;;;;;3.00;2.80;;;;;;;;;;5064683;28;20386;-83
2024/03/06 12:29:54;;;;;;;2.43;2.23;;;;;;;;;;5058805;28;20882;-82
2024/03/06 12:32:20;;;;;;;2.60;2.40;;;;;;;;;;5057922;28;20376;-82
2024/03/06 12:34:57;;;;;;;2.70;2.20;;;;;;;;;;5059746;28;20919;-83
2024/03/06 12:37:30;;;;;;;2.42;2.22;;;;;;;;;;5060995;28;20395;-83
2024/03/06 12:39:56;;;;;;;2.50;2.30;;;;;;;;;;5062203;28;20378;-83
2024/03/06 12:42:24;;;;;;;2.60;2.40;;;;;;;;;;5063987;28;20382;-83
2024/03/06 12:44:50;;;;;;;2.38;2.17;;;;;;;;;;5060024;28;20403;-83
2024/03/06 12:47:16;;;;;;;2.30;2.10;;;;;;;;;;5062295;28;20439;-83
2024/03/06 12:49:42;;;;;;;1.93;1.83;;;;;;;;;;5062723;28;20459;-83
2024/03/06 12:52:08;;;;;;;1.90;1.70;;;;;;;;;;5060839;28;20385;-82
2024/03/06 12:54:34;;;;;;;1.80;1.70;;;;;;;;;;5063069;28;20379;-83
2024/03/06 12:57:01;;;;;;;1.88;1.70;;;;;;;;;;5063685;28;20374;-82
2024/03/06 12:59:27;;;;;;;1.90;1.75;;;;;;;;;;5063532;28;20437;-83
2024/03/06 13:01:54;;;;;;;1.50;1.40;;;;;;;;;;5062154;28;20435;-82
2024/03/06 13:04:20;;;;;;;1.67;1.43;;;;;;;;;;5059599;28;20401;-82
2024/03/06 13:06:46;;;;;;;1.63;1.52;;;;;;;;;;5061858;28;20382;-83
2024/03/06 13:09:12;;;;;;;1.98;1.70;;;;;;;;;;5059909;28;20386;-82
2024/03/06 13:11:38;;;;;;;2.30;2.10;;;;;;;;;;5061214;28;20391;-82
2024/03/06 13:14:04;;;;;;;2.03;1.50;;;;;;;;;;5061276;28;20412;-82
2024/03/06 13:16:30;;;;;;;1.70;1.60;;;;;;;;;;5061933;28;20432;-83
2024/03/06 13:18:57;;;;;;;2.50;1.52;;;;;;;;;;5061273;28;20415;-82
2024/03/06 13:21:23;;;;;;;1.70;1.60;;;;;;;;;;5061106;28;20738;-83
2024/03/06 13:23:52;;;;;;;1.80;1.70;;;;;;;;;;5060618;28;20790;-82
2024/03/06 13:26:18;;;;;;;1.35;1.25;;;;;;;;;;5058085;28;20385;-82
2024/03/06 13:28:44;;;;;;;1.70;1.20;;;;;;;;;;5053766;28;20388;-81
2024/03/06 13:31:10;;;;;;;1.60;1.50;;;;;;;;;;5056595;28;20385;-81
2024/03/06 13:33:36;;;;;;;1.50;1.40;;;;;;;;;;5056554;28;20388;-81
2024/03/06 13:36:03;;;;;;;1.70;1.60;;;;;;;;;;5056868;28;20392;-80
2024/03/06 13:38:29;;;;;;;1.97;1.63;;;;;;;;;;5056376;28;20389;-82
2024/03/06 13:40:55;;;;;;;1.67;1.52;;;;;;;;;;5056675;28;20381;-82
2024/03/06 13:43:23;;;;;;;2.03;1.73;;;;;;;;;;5056057;28;20408;-82
2024/03/06 13:45:50;;;;;;;1.50;1.40;;;;;;;;;;5056481;28;20377;-80
2024/03/06 13:48:16;;;;;;;1.45;1.35;;;;;;;;;;5055864;28;20373;-80
2024/03/06 13:50:45;;;;;;;1.65;1.55;;;;;;;;;;5056152;28;20377;-80
2024/03/06 13:53:11;;;;;;;1.42;1.33;;;;;;;;;;5040859;28;20792;-80
2024/03/06 13:55:37;;;;;;;2.15;1.45;;;;;;;;;;5049677;28;20397;-80
2024/03/06 13:58:04;;;;;;;2.10;1.50;;;;;;;;;;5055528;28;20431;-80
2024/03/06 14:00:30;;;;;;;2.05;1.90;;;;;;;;;;5055978;28;20388;-80
2024/03/06 14:02:57;;;;;;;1.90;1.80;;;;;;;;;;5055363;28;20417;-80
2024/03/06 14:05:27;;;;;;;1.80;1.70;;;;;;;;;;5055225;28;20716;-81
2024/03/06 14:07:53;;;;;;;1.70;1.60;;;;;;;;;;5055302;28;20405;-80
2024/03/06 14:10:21;;;;;;;1.80;1.70;;;;;;;;;;5055551;28;20377;-81
2024/03/06 14:12:47;;;;;;;2.15;1.92;;;;;;;;;;5055091;28;20370;-81
2024/03/06 14:15:15;;;;;;;1.80;1.70;;;;;;;;;;5055152;28;20374;-81
2024/03/06 14:17:41;;;;;;;2.20;2.10;;;;;;;;;;5054986;28;20386;-81
2024/03/06 14:20:07;;;;;;;4.28;2.38;;;;;;;;;;5055248;28;20382;-80
2024/03/06 14:22:33;;;;;;;2.50;1.90;;;;;;;;;;5055218;28;20384;-81
2024/03/06 14:24:59;;;;;;;3.55;1.40;;;;;;;;;;5055864;28;20397;-80
2024/03/06 14:27:25;;;;;;;1.40;1.30;;;;;;;;;;5044120;28;20705;-82
2024/03/06 14:29:53;;;;;;;1.40;1.30;;;;;;;;;;5053791;28;20393;-81
2024/03/06 14:32:20;;;;;;;1.50;1.40;;;;;;;;;;5055532;28;20454;-81
2024/03/06 14:34:47;;;;;;;1.75;1.65;;;;;;;;;;5056055;28;20480;-81
2024/03/06 14:37:13;;;;;;;1.60;1.50;;;;;;;;;;5039252;28;20449;-81
2024/03/06 14:39:40;;;;;;;1.95;1.80;;;;;;;;;;5042131;28;20381;-81
2024/03/06 14:42:06;;;;;;;1.80;1.70;;;;;;;;;;5042744;28;20390;-81